You are not logged in, Click here to log in
那覇空港OKA / ROAH 日本沖繩縣那霸市
ICAO: ROAH Country: 日本沖繩縣那霸市
Latitude: 26.2064 Longitude: 127.647
Total Arrivals: 284 Total Departures: 263
Latest Arrival: NH1587 (RCKH-ROAH)Lun. Wang Latest Departure: BR113 (ROAH-RCTP)CHU. CHUHAO
Scenery:
METAR : ROAH 221030Z 02018KT 9999 FEW010 SCT020 BKN070 19/15 Q1026

那覇空港OKA